Time;durP1;ratioP1;P1;durP2;ratioP2;P2;SDS_P1;SDS_P2;PMS_P1;PMS_P2;Temp;Humidity;BMP_temperature;BMP_pressure;BME280_temperature;BME280_humidity;BME280_pressure;Samples;Min_cycle;Max_cycle;Signal;HPM_P1;HPM_P2
2021/09/22 00:00:52;;;;;;;15.07;9.48;;;9.60;81.20;;;;;;5101938;28;20040;-73
2021/09/22 00:03:18;;;;;;;14.18;8.65;;;9.50;81.30;;;;;;5102014;28;20322;-73
2021/09/22 00:05:44;;;;;;;10.57;6.60;;;9.40;81.50;;;;;;5102982;28;20031;-74
2021/09/22 00:08:09;;;;;;;12.60;7.50;;;9.50;81.80;;;;;;5103641;28;20322;-73
2021/09/22 00:10:35;;;;;;;13.27;7.28;;;9.40;82.50;;;;;;5103533;28;20027;-74
2021/09/22 00:13:01;;;;;;;12.70;7.78;;;9.40;82.20;;;;;;5103603;28;20050;-73
2021/09/22 00:15:27;;;;;;;11.48;7.45;;;9.40;82.20;;;;;;5102487;28;20050;-74
2021/09/22 00:17:53;;;;;;;12.27;6.72;;;9.50;81.60;;;;;;5085462;28;20227;-73
2021/09/22 00:20:24;;;;;;;11.77;6.80;;;9.50;81.50;;;;;;5102204;28;20230;-73
2021/09/22 00:22:51;;;;;;;12.75;8.02;;;9.50;81.40;;;;;;5102214;28;20261;-73
2021/09/22 00:25:17;;;;;;;;;;;9.50;81.20;;;;;;5086622;28;20024;-73
2021/09/22 00:27:43;;;;;;;11.55;7.03;;;9.50;81.10;;;;;;5102747;28;20221;-73
2021/09/22 00:30:12;;;;;;;11.63;6.10;;;9.40;80.60;;;;;;5102621;28;20028;-73
2021/09/22 00:32:38;;;;;;;11.70;6.43;;;9.40;80.20;;;;;;5102266;28;20327;-73
2021/09/22 00:35:05;;;;;;;10.82;6.22;;;9.40;79.90;;;;;;5102860;28;20028;-73
2021/09/22 00:37:31;;;;;;;9.73;6.38;;;9.30;79.80;;;;;;5103367;28;20103;-73
2021/09/22 00:39:57;;;;;;;9.88;6.32;;;9.20;79.70;;;;;;5103713;28;20301;-73
2021/09/22 00:42:22;;;;;;;8.50;5.65;;;9.20;79.60;;;;;;5102190;28;20051;-73
2021/09/22 00:44:57;;;;;;;9.38;5.90;;;9.20;79.70;;;;;;5085777;28;20023;-74
2021/09/22 00:47:28;;;;;;;9.57;5.95;;;9.10;79.90;;;;;;5102332;28;20090;-73
2021/09/22 00:49:53;;;;;;;9.43;5.88;;;9.10;79.80;;;;;;5086135;28;20396;-73
2021/09/22 00:52:19;;;;;;;10.98;6.95;;;9.00;79.70;;;;;;5102437;28;20020;-73
2021/09/22 00:54:45;;;;;;;12.27;6.83;;;8.80;80.60;;;;;;5085575;28;20068;-72
2021/09/22 00:57:13;;;;;;;9.13;5.97;;;8.70;81.20;;;;;;5102081;28;20592;-73
2021/09/22 00:59:38;;;;;;;10.40;6.32;;;8.80;81.20;;;;;;5068930;28;20034;-74
2021/09/22 01:02:05;;;;;;;11.40;6.00;;;8.70;81.50;;;;;;5101910;28;20370;-73
2021/09/22 01:04:31;;;;;;;11.90;6.60;;;8.70;81.60;;;;;;5102153;28;20087;-73
2021/09/22 01:06:57;;;;;;;12.02;6.80;;;8.70;81.30;;;;;;5102916;28;20117;-73
2021/09/22 01:09:23;;;;;;;10.63;6.05;;;8.60;81.20;;;;;;5085086;28;20091;-73
2021/09/22 01:11:49;;;;;;;12.75;6.82;;;8.60;81.20;;;;;;5084460;28;20039;-73
2021/09/22 01:14:15;;;;;;;9.32;5.72;;;8.70;81.30;;;;;;5102005;28;20035;-73
2021/09/22 01:16:44;;;;;;;9.60;5.93;;;8.60;81.50;;;;;;5101804;28;20269;-73
2021/09/22 01:19:10;;;;;;;9.05;6.00;;;8.50;82.10;;;;;;5084752;28;20051;-73
2021/09/22 01:21:36;;;;;;;10.60;6.53;;;8.50;82.20;;;;;;5102444;28;20024;-73
2021/09/22 01:24:02;;;;;;;9.15;5.38;;;8.50;82.20;;;;;;5084429;28;20024;-73
2021/09/22 01:26:31;;;;;;;11.57;6.85;;;8.60;82.40;;;;;;5101288;28;20032;-73
2021/09/22 01:28:57;;;;;;;12.13;6.85;;;8.70;82.30;;;;;;5084606;28;20211;-73
2021/09/22 01:31:23;;;;;;;11.93;6.18;;;8.80;82.20;;;;;;5102257;28;20081;-74
2021/09/22 01:33:49;;;;;;;10.93;6.22;;;8.70;82.50;;;;;;5102482;28;20016;-73
2021/09/22 01:36:15;;;;;;;12.80;7.32;;;8.70;82.90;;;;;;5101201;28;20073;-73
2021/09/22 01:38:41;;;;;;;11.87;7.23;;;8.80;82.90;;;;;;5072556;23;20240;-73
2021/09/22 01:41:07;;;;;;;11.10;6.78;;;8.80;82.70;;;;;;5004060;28;20024;-73
2021/09/22 01:43:37;;;;;;;13.13;7.20;;;8.80;82.70;;;;;;5004336;28;20232;-73
2021/09/22 01:46:03;;;;;;;12.70;7.13;;;8.70;83.40;;;;;;5004914;28;20223;-74
2021/09/22 01:48:29;;;;;;;11.32;7.22;;;8.70;83.80;;;;;;5004325;28;20068;-72
2021/09/22 01:50:55;;;;;;;10.02;6.35;;;8.60;83.50;;;;;;5021492;28;20384;-73
2021/09/22 01:53:21;;;;;;;12.05;6.88;;;8.70;83.60;;;;;;5020368;28;20022;-72
2021/09/22 01:55:47;;;;;;;12.30;6.78;;;8.70;83.40;;;;;;5020532;28;20028;-72
2021/09/22 01:58:13;;;;;;;12.50;6.82;;;8.80;83.10;;;;;;5020559;28;20030;-72
2021/09/22 02:00:40;;;;;;;12.25;7.18;;;8.70;82.90;;;;;;5020587;28;20021;-72
2021/09/22 02:03:05;;;;;;;10.55;6.53;;;8.60;83.30;;;;;;5004783;28;20328;-73
2021/09/22 02:05:31;;;;;;;9.20;5.70;;;8.50;83.60;;;;;;5024166;28;20105;-73
2021/09/22 02:07:57;;;;;;;12.70;6.85;;;8.40;84.40;;;;;;5029477;28;20032;-73
2021/09/22 02:10:23;;;;;;;10.85;6.22;;;8.40;84.00;;;;;;5060431;28;20041;-72
2021/09/22 02:12:51;;;;;;;10.88;6.97;;;8.40;83.90;;;;;;5043570;28;20320;-73
2021/09/22 02:15:17;;;;;;;11.73;6.60;;;8.40;83.70;;;;;;5043723;28;20028;-73
2021/09/22 02:17:43;;;;;;;9.95;6.50;;;8.40;83.60;;;;;;5044835;28;20021;-73
2021/09/22 02:20:11;;;;;;;9.07;5.70;;;8.30;84.10;;;;;;5044881;28;20044;-72
2021/09/22 02:22:37;;;;;;;12.57;6.80;;;8.30;84.20;;;;;;5044367;28;20055;-73
2021/09/22 02:25:04;;;;;;;11.48;7.70;;;8.30;84.60;;;;;;5043599;28;20029;-73
2021/09/22 02:27:30;;;;;;;10.73;6.30;;;8.30;84.30;;;;;;5043562;28;20029;-73
2021/09/22 02:29:56;;;;;;;12.57;6.65;;;8.30;84.10;;;;;;5043529;28;20032;-72
2021/09/22 02:32:22;;;;;;;11.70;6.85;;;8.20;84.10;;;;;;5043192;28;20022;-73
2021/09/22 02:34:48;;;;;;;12.48;6.93;;;8.20;84.10;;;;;;5043560;28;20228;-72
2021/09/22 02:37:14;;;;;;;10.13;6.65;;;8.20;84.10;;;;;;5044409;28;20033;-72
2021/09/22 02:39:39;;;;;;;9.90;6.05;;;8.30;84.00;;;;;;5026460;28;20025;-72
2021/09/22 02:42:05;;;;;;;12.15;6.75;;;8.30;83.70;;;;;;5043046;28;20037;-73
2021/09/22 02:44:31;;;;;;;9.00;6.10;;;8.30;83.30;;;;;;5043357;28;20228;-72
2021/09/22 02:46:57;;;;;;;8.40;5.78;;;8.30;83.00;;;;;;5043287;28;20022;-73
2021/09/22 02:49:23;;;;;;;13.65;7.15;;;8.20;82.50;;;;;;5043157;28;20280;-72
2021/09/22 02:51:49;;;;;;;11.18;7.10;;;8.20;82.70;;;;;;5043999;28;20363;-72
2021/09/22 02:54:15;;;;;;;9.75;5.85;;;8.20;82.10;;;;;;5042808;28;20025;-73
2021/09/22 02:56:40;;;;;;;9.07;5.82;;;8.10;81.70;;;;;;5043110;28;20024;-72
2021/09/22 02:59:06;;;;;;;10.95;5.97;;;8.10;82.40;;;;;;5044030;28;20088;-72
2021/09/22 03:01:32;;;;;;;10.95;5.93;;;8.20;82.90;;;;;;5042733;28;20026;-72
2021/09/22 03:03:59;;;;;;;9.55;6.18;;;8.20;82.30;;;;;;5044122;28;20033;-72
2021/09/22 03:06:25;;;;;;;;;;;8.20;82.30;;;;;;5043372;28;20017;-72
2021/09/22 03:08:50;;;;;;;9.70;5.95;;;8.30;82.30;;;;;;5043414;28;19976;-73
2021/09/22 03:11:16;;;;;;;10.38;5.93;;;8.30;81.90;;;;;;5042541;28;20342;-73
2021/09/22 03:13:42;;;;;;;10.80;6.65;;;8.30;82.20;;;;;;5042779;28;20021;-72
2021/09/22 03:16:08;;;;;;;10.25;6.07;;;8.30;82.30;;;;;;5041824;28;20029;-72
2021/09/22 03:18:34;;;;;;;8.37;5.67;;;8.30;82.70;;;;;;5026198;28;20045;-72
2021/09/22 03:21:00;;;;;;;11.33;6.40;;;8.20;82.40;;;;;;5042342;28;20025;-73
2021/09/22 03:23:26;;;;;;;10.40;6.30;;;8.20;82.60;;;;;;5042219;28;20027;-73
2021/09/22 03:25:52;;;;;;;12.57;6.82;;;8.30;82.90;;;;;;5042581;28;20310;-73
2021/09/22 03:28:18;;;;;;;10.03;6.70;;;8.30;82.90;;;;;;5026057;28;20025;-72
2021/09/22 03:30:44;;;;;;;11.63;6.32;;;8.30;82.80;;;;;;5042238;28;20280;-73
2021/09/22 03:33:10;;;;;;;9.63;6.05;;;8.40;83.10;;;;;;5043343;28;20032;-73
2021/09/22 03:35:35;;;;;;;9.48;6.10;;;8.40;83.80;;;;;;5042378;28;20139;-72
2021/09/22 03:38:01;;;;;;;11.15;6.40;;;8.40;82.80;;;;;;5041704;28;20025;-72
2021/09/22 03:40:27;;;;;;;13.00;7.30;;;8.50;82.50;;;;;;5042257;28;20022;-72
2021/09/22 03:42:53;;;;;;;12.32;6.93;;;8.70;82.50;;;;;;5041888;28;20347;-73
2021/09/22 03:45:19;;;;;;;11.07;6.82;;;8.70;82.30;;;;;;5042284;28;20033;-72
2021/09/22 03:47:45;;;;;;;12.25;6.63;;;8.70;82.20;;;;;;5025620;28;20036;-73
2021/09/22 03:50:11;;;;;;;12.85;7.43;;;8.70;82.30;;;;;;5043142;28;20320;-72
2021/09/22 03:52:36;;;;;;;11.10;6.32;;;8.80;81.80;;;;;;5057996;28;20080;-73
2021/09/22 03:55:03;;;;;;;10.50;6.05;;;8.80;81.80;;;;;;5043081;28;20024;-72
2021/09/22 03:57:29;;;;;;;;;;;8.70;81.80;;;;;;5025979;28;20025;-72
2021/09/22 03:59:55;;;;;;;10.75;5.95;;;8.70;82.20;;;;;;5042931;28;19919;-72
2021/09/22 04:02:21;;;;;;;12.75;7.57;;;8.70;82.20;;;;;;5041593;28;20338;-73
2021/09/22 04:04:47;;;;;;;11.93;6.35;;;8.70;82.40;;;;;;5058329;28;20096;-72
2021/09/22 04:07:13;;;;;;;12.47;6.93;;;8.60;82.30;;;;;;5041511;28;20033;-72
2021/09/22 04:09:39;;;;;;;11.43;7.05;;;8.70;82.60;;;;;;5057920;28;20375;-72
2021/09/22 04:12:05;;;;;;;13.45;6.47;;;8.70;83.10;;;;;;5042438;28;20066;-73
2021/09/22 04:14:31;;;;;;;10.65;6.43;;;8.80;82.00;;;;;;5041622;28;20338;-72
2021/09/22 04:16:57;;;;;;;11.80;6.83;;;8.90;81.80;;;;;;5042684;28;20060;-72
2021/09/22 04:19:23;;;;;;;11.85;6.53;;;8.80;82.10;;;;;;5058168;28;20037;-72
2021/09/22 04:21:49;;;;;;;10.77;6.57;;;8.90;82.00;;;;;;5041180;28;20228;-73
2021/09/22 04:24:14;;;;;;;10.23;5.72;;;8.90;81.60;;;;;;5041263;28;20029;-73
2021/09/22 04:26:41;;;;;;;10.10;6.30;;;8.90;81.50;;;;;;5024925;28;20292;-73
2021/09/22 04:29:07;;;;;;;11.60;6.40;;;8.90;81.40;;;;;;5041412;28;20379;-73
2021/09/22 04:31:32;;;;;;;10.07;6.53;;;8.90;81.80;;;;;;5041083;28;20033;-73
2021/09/22 04:33:58;;;;;;;10.38;6.60;;;8.90;81.80;;;;;;5041381;28;20025;-73
2021/09/22 04:36:24;;;;;;;9.80;6.18;;;8.90;82.60;;;;;;5041277;28;20025;-73
2021/09/22 04:38:50;;;;;;;11.10;6.03;;;8.90;82.40;;;;;;5040775;28;20029;-73
2021/09/22 04:41:16;;;;;;;10.07;5.72;;;8.80;82.50;;;;;;5042016;28;20026;-73
2021/09/22 04:43:42;;;;;;;10.10;5.90;;;8.80;83.00;;;;;;5041255;28;20079;-73
2021/09/22 04:46:11;;;;;;;12.00;6.63;;;8.90;82.40;;;;;;5024722;28;20029;-73
2021/09/22 04:48:39;;;;;;;8.80;5.60;;;9.00;82.20;;;;;;5057603;28;20075;-73
2021/09/22 04:51:05;;;;;;;8.07;5.78;;;9.00;81.90;;;;;;5040635;28;20044;-73
2021/09/22 04:53:31;;;;;;;10.68;6.45;;;8.90;82.00;;;;;;5040797;28;20084;-72
2021/09/22 04:55:56;;;;;;;10.45;6.63;;;9.00;82.00;;;;;;5041008;28;20041;-72
2021/09/22 04:58:23;;;;;;;10.93;6.50;;;9.00;82.00;;;;;;5040994;28;20021;-72
2021/09/22 05:00:48;;;;;;;9.68;6.13;;;8.90;82.40;;;;;;5057474;28;20044;-73
2021/09/22 05:03:15;;;;;;;12.50;7.20;;;9.00;82.70;;;;;;5041911;28;20021;-72
2021/09/22 05:05:42;;;;;;;10.30;6.28;;;9.00;82.30;;;;;;5040686;28;20025;-72
2021/09/22 05:08:08;;;;;;;10.95;6.72;;;9.00;82.30;;;;;;5041553;28;20025;-73
2021/09/22 05:10:33;;;;;;;11.38;6.57;;;9.00;82.10;;;;;;5040731;28;20376;-72
2021/09/22 05:12:59;;;;;;;10.40;5.97;;;9.00;81.70;;;;;;5024200;28;20041;-73
2021/09/22 05:15:25;;;;;;;11.70;6.97;;;9.00;82.00;;;;;;5024460;28;20017;-72
2021/09/22 05:17:51;;;;;;;11.65;6.75;;;9.00;82.00;;;;;;5040707;28;20022;-72
2021/09/22 05:20:17;;;;;;;12.23;7.05;;;9.00;82.60;;;;;;5040712;28;20021;-73
2021/09/22 05:22:43;;;;;;;10.45;5.95;;;9.00;82.30;;;;;;5040508;28;20048;-72
2021/09/22 05:25:09;;;;;;;9.57;5.65;;;9.00;82.20;;;;;;5040425;28;20056;-73
2021/09/22 05:27:35;;;;;;;8.85;5.90;;;9.00;82.30;;;;;;5041667;28;20351;-73
2021/09/22 05:30:01;;;;;;;11.95;6.72;;;9.10;82.50;;;;;;5040642;28;20034;-72
2021/09/22 05:32:26;;;;;;;9.52;5.68;;;9.10;82.40;;;;;;5040240;28;20028;-72
2021/09/22 05:34:52;;;;;;;9.88;6.30;;;9.10;82.20;;;;;;5026551;28;20026;-73
2021/09/22 05:37:18;;;;;;;11.63;6.10;;;9.10;81.90;;;;;;5021708;28;20336;-72
2021/09/22 05:39:44;;;;;;;8.43;5.90;;;9.10;82.10;;;;;;5023730;28;20022;-72
2021/09/22 05:42:10;;;;;;;8.90;5.13;;;9.10;82.20;;;;;;5024373;28;20079;-72
2021/09/22 05:44:36;;;;;;;11.13;6.35;;;9.20;82.30;;;;;;5025619;28;20033;-72
2021/09/22 05:47:02;;;;;;;10.93;6.50;;;9.30;82.10;;;;;;5025336;28;20076;-72
2021/09/22 05:49:28;;;;;;;8.53;5.47;;;9.30;82.30;;;;;;5024632;28;20071;-72
2021/09/22 05:51:54;;;;;;;10.15;6.05;;;9.30;82.40;;;;;;5024470;28;20328;-72
2021/09/22 05:54:21;;;;;;;11.27;6.30;;;9.30;81.80;;;;;;5025427;28;20037;-72
2021/09/22 05:56:48;;;;;;;;;;;9.20;81.90;;;;;;5008610;28;20037;-72
2021/09/22 05:59:14;;;;;;;10.30;5.47;;;9.30;82.10;;;;;;5024341;28;20380;-72
2021/09/22 06:01:40;;;;;;;7.72;5.47;;;9.30;81.80;;;;;;5007501;28;20017;-72
2021/09/22 06:04:06;;;;;;;11.65;6.15;;;9.30;81.90;;;;;;5024190;28;20029;-72
2021/09/22 06:06:32;;;;;;;9.68;5.13;;;9.30;81.50;;;;;;5024253;28;20026;-72
2021/09/22 06:08:58;;;;;;;11.48;6.28;;;9.30;81.90;;;;;;5017969;28;20328;-72
2021/09/22 06:11:24;;;;;;;10.90;6.65;;;9.40;81.70;;;;;;5024940;28;20022;-73
2021/09/22 06:13:53;;;;;;;9.80;6.80;;;9.40;81.40;;;;;;5025249;28;20018;-73
2021/09/22 06:16:20;;;;;;;9.93;5.95;;;9.40;81.70;;;;;;5025152;28;20350;-72
2021/09/22 06:18:46;;;;;;;10.30;6.20;;;9.50;81.60;;;;;;5023996;28;20217;-72
2021/09/22 06:21:12;;;;;;;8.77;6.15;;;9.60;81.80;;;;;;5023442;28;20096;-73
2021/09/22 06:23:38;;;;;;;10.85;7.57;;;9.70;80.80;;;;;;5023609;28;20037;-72
2021/09/22 06:26:04;;;;;;;11.95;6.60;;;9.70;81.00;;;;;;5023787;28;20029;-72
2021/09/22 06:28:30;;;;;;;13.05;7.45;;;9.70;81.30;;;;;;5007339;28;20026;-71
2021/09/22 06:30:55;;;;;;;10.52;6.78;;;9.80;81.00;;;;;;5024196;28;20026;-72
2021/09/22 06:33:21;;;;;;;10.38;7.03;;;9.80;80.90;;;;;;5007383;28;20110;-72
2021/09/22 06:35:47;;;;;;;9.40;6.25;;;9.80;80.40;;;;;;5023736;28;20022;-71
2021/09/22 06:38:13;;;;;;;11.43;7.25;;;9.80;80.90;;;;;;5014661;28;20034;-72
2021/09/22 06:40:39;;;;;;;10.75;6.75;;;9.90;80.90;;;;;;5010389;28;20021;-73
2021/09/22 06:43:05;;;;;;;10.85;7.25;;;10.00;81.00;;;;;;5026556;28;20230;-71
2021/09/22 06:45:31;;;;;;;16.30;9.50;;;10.10;81.90;;;;;;5043203;28;20032;-72
2021/09/22 06:47:57;;;;;;;12.68;7.05;;;10.20;81.70;;;;;;5043262;28;20018;-74
2021/09/22 06:50:23;;;;;;;9.55;6.20;;;;;;;;;;5040067;28;20045;-71
2021/09/22 06:52:49;;;;;;;10.68;6.20;;;10.40;80.20;;;;;;5026539;28;20316;-71
2021/09/22 06:55:15;;;;;;;11.43;6.17;;;10.40;80.40;;;;;;5024197;28;20032;-71
2021/09/22 06:57:43;;;;;;;10.38;6.47;;;10.50;80.40;;;;;;5024123;28;20033;-71
2021/09/22 07:00:10;;;;;;;12.40;6.70;;;10.50;79.40;;;;;;5006992;28;20022;-70
2021/09/22 07:02:37;;;;;;;;;;;10.60;79.10;;;;;;5007806;28;20085;-75
2021/09/22 07:05:07;;;;;;;9.80;5.95;;;10.60;78.90;;;;;;5023204;28;20109;-73
2021/09/22 07:07:33;;;;;;;8.90;6.25;;;10.70;78.70;;;;;;5021922;28;20021;-73
2021/09/22 07:09:58;;;;;;;10.23;6.60;;;10.80;77.80;;;;;;5022646;28;20030;-73
2021/09/22 07:12:24;;;;;;;9.38;6.38;;;10.70;78.20;;;;;;5023662;28;20030;-73
2021/09/22 07:14:50;;;;;;;11.88;6.57;;;10.80;78.70;;;;;;5022990;28;20041;-73
2021/09/22 07:17:18;;;;;;;10.35;6.25;;;10.90;78.60;;;;;;5023069;28;20077;-75
2021/09/22 07:19:45;;;;;;;11.77;6.47;;;10.90;78.20;;;;;;5023992;28;20156;-72
2021/09/22 07:22:10;;;;;;;10.05;6.38;;;10.90;78.40;;;;;;5021929;28;20037;-72
2021/09/22 07:24:36;;;;;;;10.70;6.77;;;10.80;77.80;;;;;;5023699;28;20022;-71
2021/09/22 07:27:02;;;;;;;12.20;6.75;;;10.80;78.70;;;;;;5022923;28;20339;-73
2021/09/22 07:29:28;;;;;;;12.32;6.65;;;10.80;78.70;;;;;;5023698;28;20128;-71
2021/09/22 07:31:55;;;;;;;11.30;6.55;;;11.00;79.40;;;;;;5022326;28;20271;-72
2021/09/22 07:34:21;;;;;;;;;;;11.00;79.20;;;;;;5022917;28;20018;-73
2021/09/22 07:36:49;;;;;;;9.80;5.78;;;11.10;79.40;;;;;;5024598;28;19976;-71
2021/09/22 07:39:15;;;;;;;10.25;6.07;;;11.10;78.60;;;;;;5022784;28;20040;-71
2021/09/22 07:41:41;;;;;;;10.77;7.03;;;11.30;78.80;;;;;;5043017;28;20096;-77
2021/09/22 07:44:07;;;;;;;9.43;5.97;;;11.20;78.50;;;;;;5043033;28;20036;-74
2021/09/22 07:46:33;;;;;;;9.27;6.20;;;11.20;79.00;;;;;;5039429;28;20033;-70
2021/09/22 07:48:58;;;;;;;11.38;6.50;;;11.40;78.10;;;;;;5023383;28;20036;-69
2021/09/22 07:51:24;;;;;;;10.20;6.20;;;11.40;77.70;;;;;;5023038;28;20085;-69
2021/09/22 07:53:50;;;;;;;9.77;6.28;;;11.40;77.90;;;;;;5023038;28;20046;-70
2021/09/22 07:56:16;;;;;;;11.27;6.43;;;11.40;77.90;;;;;;5022050;28;20045;-69
2021/09/22 07:58:42;;;;;;;11.50;6.17;;;11.50;78.20;;;;;;5023128;28;20028;-70
2021/09/22 08:01:11;;;;;;;10.90;6.93;;;11.60;78.30;;;;;;5005139;28;20052;-69
2021/09/22 08:03:40;;;;;;;11.15;6.60;;;11.70;77.40;;;;;;5022990;28;20038;-69
2021/09/22 08:06:07;;;;;;;10.65;6.57;;;11.80;76.80;;;;;;5022014;28;20029;-70
2021/09/22 08:08:33;;;;;;;11.68;6.88;;;11.90;76.90;;;;;;5015974;28;20339;-69
2021/09/22 08:10:59;;;;;;;10.68;6.55;;;12.00;77.00;;;;;;5041227;28;20041;-68
2021/09/22 08:13:25;;;;;;;10.85;6.22;;;12.10;77.00;;;;;;5041585;28;20014;-68
2021/09/22 08:15:51;;;;;;;9.57;6.27;;;12.20;78.00;;;;;;5041702;28;20021;-70
2021/09/22 08:18:17;;;;;;;15.55;6.32;;;12.30;78.50;;;;;;5042697;28;20047;-70
2021/09/22 08:20:42;;;;;;;10.07;6.00;;;12.40;78.00;;;;;;5041638;28;20025;-70
2021/09/22 08:23:08;;;;;;;9.67;5.50;;;12.40;77.10;;;;;;5042300;28;20335;-69
2021/09/22 08:25:34;;;;;;;13.27;8.30;;;12.50;77.70;;;;;;5041197;28;20328;-70
2021/09/22 08:28:00;;;;;;;10.87;7.33;;;12.60;75.80;;;;;;5042413;28;20088;-69
2021/09/22 08:30:26;;;;;;;8.97;6.10;;;12.80;76.80;;;;;;5041306;28;20224;-70
2021/09/22 08:32:52;;;;;;;10.93;6.57;;;12.90;76.00;;;;;;5041967;28;20024;-69
2021/09/22 08:35:17;;;;;;;9.87;6.17;;;13.00;75.60;;;;;;5042474;28;20017;-70
2021/09/22 08:37:43;;;;;;;10.00;5.77;;;13.10;75.70;;;;;;5042178;28;20029;-70
2021/09/22 08:40:10;;;;;;;13.03;6.73;;;13.30;74.30;;;;;;5040852;28;20060;-70
2021/09/22 08:42:36;;;;;;;8.52;5.75;;;13.30;73.50;;;;;;5040964;28;20021;-70
2021/09/22 08:45:03;;;;;;;9.20;5.75;;;13.40;73.70;;;;;;5041103;28;20052;-70
2021/09/22 08:47:29;;;;;;;7.70;5.13;;;13.40;73.80;;;;;;5041124;28;20036;-70
2021/09/22 08:49:54;;;;;;;8.17;5.50;;;13.50;76.10;;;;;;5040962;28;20057;-70
2021/09/22 08:52:20;;;;;;;7.17;4.73;;;13.60;76.20;;;;;;5057414;28;20260;-70
2021/09/22 08:54:46;;;;;;;7.87;5.07;;;13.70;77.40;;;;;;5040539;28;20203;-69
2021/09/22 08:57:12;;;;;;;6.10;4.13;;;13.90;76.40;;;;;;5042280;28;20022;-70
2021/09/22 08:59:38;;;;;;;12.27;5.40;;;14.00;75.70;;;;;;5042108;28;20085;-69
2021/09/22 09:02:19;;;;;;;8.23;4.20;;;14.00;74.50;;;;;;5041799;28;20116;-69
2021/09/22 09:04:46;;;;;;;5.88;3.22;;;14.10;75.50;;;;;;5024385;28;20052;-69
2021/09/22 09:07:12;;;;;;;6.47;4.00;;;13.90;71.40;;;;;;5024476;28;20029;-70
2021/09/22 09:09:40;;;;;;;5.40;3.73;;;14.20;73.50;;;;;;5057365;28;20029;-70
2021/09/22 09:12:22;;;;;;;5.93;3.65;;;14.30;73.00;;;;;;5041706;28;20271;-70
2021/09/22 09:14:57;;;;;;;4.45;3.28;;;14.30;73.10;;;;;;5045719;28;20087;-68
2021/09/22 09:17:40;;;;;;;7.57;3.15;;;14.40;71.60;;;;;;5046124;28;20025;-69
2021/09/22 09:20:20;;;;;;;4.40;2.65;;;14.40;72.00;;;;;;5046094;28;20021;-70
2021/09/22 09:23:01;;;;;;;4.05;3.58;;;14.40;71.60;;;;;;5044726;28;20021;-69
2021/09/22 09:25:29;;;;;;;3.88;2.38;;;14.50;73.90;;;;;;5045728;28;20021;-70
2021/09/22 09:27:55;;;;;;;4.28;2.42;;;14.60;75.20;;;;;;5044974;28;20374;-69
2021/09/22 09:30:24;;;;;;;5.23;2.97;;;14.60;72.70;;;;;;5061306;28;20033;-69
2021/09/22 09:32:50;;;;;;;3.45;2.60;;;14.70;72.80;;;;;;5045589;28;20040;-70
2021/09/22 09:35:21;;;;;;;3.80;1.83;;;14.70;73.10;;;;;;5045756;28;20316;-70
2021/09/22 09:37:52;;;;;;;4.85;3.05;;;14.60;71.40;;;;;;5044585;28;20049;-69
2021/09/22 09:40:34;;;;;;;3.38;2.38;;;14.70;72.50;;;;;;5044546;28;20080;-70
2021/09/22 09:43:08;;;;;;;3.83;2.67;;;14.80;72.40;;;;;;5045130;28;20033;-70
2021/09/22 09:45:42;;;;;;;3.90;2.28;;;14.80;71.90;;;;;;5045546;28;20039;-70
2021/09/22 09:48:20;;;;;;;4.18;2.65;;;14.90;72.20;;;;;;5044689;28;20033;-70
2021/09/22 09:50:52;;;;;;;4.28;3.22;;;14.90;71.60;;;;;;5028112;28;20029;-68
2021/09/22 09:53:32;;;;;;;3.97;2.47;;;14.90;71.90;;;;;;5045778;28;20021;-70
2021/09/22 09:56:00;;;;;;;5.22;2.88;;;15.10;71.20;;;;;;5045208;28;20254;-69
2021/09/22 09:58:40;;;;;;;2.20;2.00;;;15.20;72.50;;;;;;5044339;28;20026;-70
2021/09/22 10:01:06;;;;;;;2.70;1.88;;;15.30;71.70;;;;;;5043975;28;20056;-70
2021/09/22 10:03:32;;;;;;;3.67;1.80;;;15.50;71.30;;;;;;5045101;28;20025;-70
2021/09/22 10:05:58;;;;;;;4.13;2.57;;;15.50;70.60;;;;;;5045120;28;20320;-70
2021/09/22 10:08:26;;;;;;;2.80;1.98;;;15.60;70.40;;;;;;5045080;28;20362;-70
2021/09/22 10:10:52;;;;;;;2.65;1.92;;;15.80;69.00;;;;;;5044538;28;20033;-70
2021/09/22 10:13:19;;;;;;;3.00;1.98;;;15.90;69.30;;;;;;5045006;28;20023;-70
2021/09/22 10:15:45;;;;;;;2.45;1.83;;;16.00;68.30;;;;;;5043736;28;20081;-70
2021/09/22 10:18:12;;;;;;;;;;;16.00;68.90;;;;;;5045340;28;20040;-70
2021/09/22 10:20:42;;;;;;;3.67;2.00;;;16.30;68.50;;;;;;5027295;28;19976;-70
2021/09/22 10:23:09;;;;;;;2.40;1.80;;;16.50;66.90;;;;;;5060228;28;20212;-70
2021/09/22 10:25:35;;;;;;;2.95;1.83;;;16.60;67.70;;;;;;5026734;28;20022;-70
2021/09/22 10:28:01;;;;;;;2.00;1.30;;;16.70;68.50;;;;;;5043633;28;20193;-70
2021/09/22 10:30:37;;;;;;;2.05;1.48;;;16.70;66.60;;;;;;5044592;28;20028;-70
2021/09/22 10:33:04;;;;;;;1.87;1.30;;;16.90;67.10;;;;;;5043448;28;20033;-70
2021/09/22 10:35:36;;;;;;;2.35;2.10;;;17.10;64.60;;;;;;5043448;28;20021;-70
2021/09/22 10:38:21;;;;;;;4.38;2.17;;;16.90;64.00;;;;;;5043358;28;20033;-69
2021/09/22 10:40:51;;;;;;;2.78;1.73;;;17.00;65.50;;;;;;5043968;28;20036;-70
2021/09/22 10:43:17;;;;;;;1.58;1.48;;;17.00;65.70;;;;;;5044393;28;20030;-69
2021/09/22 10:46:06;;;;;;;3.27;1.80;;;17.10;65.60;;;;;;5044371;28;20021;-70
2021/09/22 10:48:42;;;;;;;2.95;1.60;;;17.20;65.10;;;;;;5045662;28;20288;-72
2021/09/22 10:51:10;;;;;;;3.30;1.20;;;17.40;62.10;;;;;;5044188;28;20319;-70
2021/09/22 10:53:39;;;;;;;2.65;1.60;;;17.40;61.30;;;;;;5043233;28;20029;-70
2021/09/22 10:56:26;;;;;;;2.45;1.35;;;17.30;61.80;;;;;;5042835;28;20017;-70
2021/09/22 10:58:57;;;;;;;2.17;1.50;;;17.30;62.50;;;;;;5042960;28;20044;-70
2021/09/22 11:01:32;;;;;;;3.97;1.85;;;17.40;63.40;;;;;;5042886;28;20029;-69
2021/09/22 11:04:05;;;;;;;2.28;1.40;;;17.80;62.90;;;;;;5042751;28;20028;-70
2021/09/22 11:06:48;;;;;;;2.42;1.25;;;18.10;62.00;;;;;;5042970;28;20043;-70
2021/09/22 11:09:17;;;;;;;1.63;1.15;;;18.00;59.60;;;;;;5043561;28;20107;-69
2021/09/22 11:11:55;;;;;;;2.88;2.13;;;17.80;60.10;;;;;;5042861;28;20067;-69
2021/09/22 11:14:30;;;;;;;1.88;1.45;;;17.90;61.00;;;;;;5043536;28;20018;-69
2021/09/22 11:17:24;;;;;;;2.95;1.00;;;18.00;58.50;;;;;;5043708;28;20026;-69
2021/09/22 11:20:00;;;;;;;1.58;1.00;;;18.20;57.90;;;;;;5042646;28;20021;-69
2021/09/22 11:22:33;;;;;;;2.03;1.30;;;18.70;57.90;;;;;;5043475;28;20025;-70
2021/09/22 11:25:01;;;;;;;3.83;1.52;;;18.70;58.80;;;;;;5042509;28;20060;-70
2021/09/22 11:27:28;;;;;;;2.22;1.67;;;18.90;57.00;;;;;;5042530;28;20017;-68
2021/09/22 11:30:00;;;;;;;2.28;1.20;;;18.90;55.00;;;;;;5042629;28;20037;-69
2021/09/22 11:32:36;;;;;;;1.98;1.20;;;18.80;55.40;;;;;;5043491;28;20021;-70
2021/09/22 11:35:19;;;;;;;1.50;1.23;;;18.90;55.70;;;;;;5042385;28;20184;-69
2021/09/22 11:37:53;;;;;;;2.15;1.50;;;19.60;52.60;;;;;;5041908;28;20284;-69
2021/09/22 11:40:31;;;;;;;2.63;2.17;;;19.90;52.80;;;;;;5043069;28;20044;-69
2021/09/22 11:43:11;;;;;;;2.08;1.38;;;19.80;51.70;;;;;;5043142;28;20021;-70
2021/09/22 11:45:41;;;;;;;1.38;1.27;;;19.50;51.50;;;;;;5043021;28;20331;-70
2021/09/22 11:48:08;;;;;;;1.55;1.45;;;19.10;52.10;;;;;;5042132;28;20220;-70
2021/09/22 11:50:35;;;;;;;;;;;18.90;53.70;;;;;;5042388;28;20029;-70
2021/09/22 11:53:02;;;;;;;2.65;1.45;;;19.20;53.90;;;;;;5042871;28;19912;-69
2021/09/22 11:55:28;;;;;;;3.08;1.73;;;19.60;52.50;;;;;;5041907;28;20538;-70
2021/09/22 11:57:54;;;;;;;3.58;1.45;;;20.50;50.50;;;;;;5042985;28;20132;-69
2021/09/22 12:00:23;;;;;;;2.25;1.52;;;21.00;49.30;;;;;;5042050;28;20030;-69
2021/09/22 12:02:49;;;;;;;1.38;1.10;;;21.20;48.60;;;;;;5042730;28;20040;-70
2021/09/22 12:05:20;;;;;;;2.35;1.20;;;20.60;47.90;;;;;;5041875;28;20060;-69
2021/09/22 12:07:47;;;;;;;2.70;1.38;;;20.40;49.10;;;;;;5042888;28;20033;-69
2021/09/22 12:10:13;;;;;;;3.53;1.30;;;20.60;51.10;;;;;;5025093;28;20091;-69
2021/09/22 12:12:40;;;;;;;2.88;1.17;;;21.30;50.80;;;;;;5041475;28;20031;-69
2021/09/22 12:15:07;;;;;;;3.55;1.83;;;22.20;46.80;;;;;;5041697;28;20048;-69
2021/09/22 12:17:38;;;;;;;1.90;1.33;;;21.90;47.00;;;;;;5041686;28;20474;-69
2021/09/22 12:20:08;;;;;;;4.22;1.45;;;21.50;47.50;;;;;;5042687;28;20339;-70
2021/09/22 12:22:35;;;;;;;4.07;1.05;;;21.40;48.10;;;;;;5041632;28;20044;-69
2021/09/22 12:25:02;;;;;;;2.25;1.75;;;21.30;48.00;;;;;;5057829;28;20017;-70
2021/09/22 12:27:28;;;;;;;;;;;21.10;48.30;;;;;;5025530;28;20072;-69
2021/09/22 12:29:59;;;;;;;1.92;1.20;;;21.20;48.50;;;;;;5041425;28;19947;-69
2021/09/22 12:32:27;;;;;;;2.63;1.02;;;22.10;47.20;;;;;;5057820;28;20032;-69
2021/09/22 12:34:53;;;;;;;1.50;1.02;;;22.90;44.90;;;;;;5041450;28;20021;-70
2021/09/22 12:37:22;;;;;;;5.07;1.45;;;22.80;44.60;;;;;;5041292;28;20109;-70
2021/09/22 12:40:00;;;;;;;1.55;1.13;;;22.80;44.00;;;;;;5041060;28;20100;-69
2021/09/22 12:42:48;;;;;;;2.47;1.08;;;23.10;45.60;;;;;;5042122;28;20048;-70
2021/09/22 12:45:29;;;;;;;2.42;1.10;;;24.10;43.50;;;;;;5042416;28;20024;-70
2021/09/22 12:48:05;;;;;;;3.30;1.25;;;25.50;40.80;;;;;;5042186;28;20026;-70
2021/09/22 12:50:39;;;;;;;1.50;1.20;;;25.30;40.30;;;;;;5024877;28;20021;-70
2021/09/22 12:53:13;;;;;;;2.45;1.00;;;26.80;38.20;;;;;;5042053;28;20028;-70